Time;durP1;ratioP1;P1;durP2;ratioP2;P2;SDS_P1;SDS_P2;PMS_P1;PMS_P2;Temp;Humidity;BMP_temperature;BMP_pressure;BME280_temperature;BME280_humidity;BME280_pressure;Samples;Min_cycle;Max_cycle;Signal;HPM_P1;HPM_P2
2021/05/26 00:00:23;;;;;;;0.60;0.60;;;;;;;10.08;56.34;97017.91;29396;203;63009;-63
2021/05/26 00:00:58;;;;;;;0.50;0.50;;;;;;;10.06;56.61;97022.81;29397;227;63008;-63
2021/05/26 00:01:31;;;;;;;0.60;0.60;;;;;;;10.05;56.44;97015.78;29397;274;63013;-62
2021/05/26 00:02:18;;;;;;;0.50;0.50;;;;;;;10.05;56.62;97012.25;29396;203;64009;-63
2021/05/26 00:02:51;;;;;;;0.60;0.60;;;;;;;10.03;56.38;97017.97;29397;226;63017;-63
2021/05/26 00:03:23;;;;;;;0.57;0.57;;;;;;;10.11;56.57;97018.44;29397;216;63004;-62
2021/05/26 00:03:55;;;;;;;0.55;0.55;;;;;;;10.08;57.22;97019.81;29397;202;63008;-62
2021/05/26 00:04:28;;;;;;;0.60;0.60;;;;;;;10.07;56.76;97021.72;29397;229;63004;-62
2021/05/26 00:05:00;;;;;;;0.60;0.60;;;;;;;10.05;57.54;97025.81;29397;227;63005;-64
2021/05/26 00:05:32;;;;;;;0.60;0.60;;;;;;;10.05;57.24;97018.47;29397;226;63005;-61
2021/05/26 00:06:04;;;;;;;0.60;0.60;;;;;;;10.04;57.19;97022.31;29396;198;64014;-61
2021/05/26 00:06:35;;;;;;;0.60;0.60;;;;;;;10.02;57.14;97013.66;29397;360;63005;-62
2021/05/26 00:07:07;;;;;;;0.50;0.50;;;;;;;10.03;56.56;97014.47;29397;224;63009;-62
2021/05/26 00:07:39;;;;;;;0.60;0.60;;;;;;;10.05;57.24;97021.19;29397;233;63005;-61
2021/05/26 00:08:10;;;;;;;0.60;0.60;;;;;;;10.08;56.95;97020.63;29397;316;63009;-63
2021/05/26 00:08:41;;;;;;;0.60;0.60;;;;;;;10.08;56.79;97017.09;29397;214;63005;-61
2021/05/26 00:09:16;;;;;;;0.52;0.52;;;;;;;10.07;56.92;97008.16;29397;208;63009;-61
2021/05/26 00:09:51;;;;;;;0.57;0.57;;;;;;;10.05;57.30;97015.78;29397;300;63004;-62
2021/05/26 00:10:22;;;;;;;0.60;0.60;;;;;;;10.03;56.82;97012.56;29397;228;63009;-63
2021/05/26 00:10:57;;;;;;;0.50;0.50;;;;;;;10.04;57.07;97013.37;29396;197;64009;-62
2021/05/26 00:11:30;;;;;;;0.55;0.55;;;;;;;10.04;56.94;97011.47;29397;208;63021;-59
2021/05/26 00:12:03;;;;;;;0.50;0.50;;;;;;;10.05;56.89;97013.06;29397;204;63004;-62
2021/05/26 00:12:36;;;;;;;0.60;0.60;;;;;;;10.05;57.13;97007.63;29397;207;63009;-62
2021/05/26 00:13:09;;;;;;;0.50;0.50;;;;;;;10.05;56.88;97009.53;29396;214;63001;-63
2021/05/26 00:13:42;;;;;;;0.50;0.50;;;;;;;10.04;56.95;97013.37;29396;314;63009;-60
2021/05/26 00:14:17;;;;;;;0.50;0.50;;;;;;;10.06;56.96;97017.38;29396;293;63008;-61
2021/05/26 00:14:51;;;;;;;0.60;0.60;;;;;;;10.06;57.37;97008.44;29396;240;63009;-61
2021/05/26 00:15:23;;;;;;;0.50;0.50;;;;;;;10.07;57.25;97012.78;29396;197;63005;-63
2021/05/26 00:16:06;;;;;;;0.50;0.50;;;;;;;10.08;57.31;97009.78;29395;278;64013;-62
2021/05/26 00:16:39;;;;;;;0.60;0.60;;;;;;;10.08;57.58;97008.97;29396;203;63000;-60
2021/05/26 00:17:13;;;;;;;0.60;0.60;;;;;;;10.08;57.28;97007.06;29396;233;63009;-63
2021/05/26 00:17:45;;;;;;;0.50;0.50;;;;;;;10.18;57.58;96997.22;29396;218;63004;-60
2021/05/26 00:18:21;;;;;;;0.60;0.60;;;;;;;10.20;57.21;96995.88;29395;202;64013;-63
2021/05/26 00:18:55;;;;;;;0.60;0.60;;;;;;;10.18;57.39;97000.75;29396;373;63004;-61
2021/05/26 00:19:27;;;;;;;0.50;0.50;;;;;;;10.17;57.27;96995.59;29396;204;63008;-61
2021/05/26 00:20:09;;;;;;;0.55;0.55;;;;;;;10.13;57.31;96998.06;29396;296;63005;-62
2021/05/26 00:20:41;;;;;;;0.50;0.50;;;;;;;10.14;57.48;97001.59;29395;252;64014;-61
2021/05/26 00:21:14;;;;;;;0.50;0.50;;;;;;;10.14;57.14;96998.87;29396;219;63005;-62
2021/05/26 00:21:48;;;;;;;0.50;0.50;;;;;;;10.17;57.28;96995.59;29396;235;63009;-63
2021/05/26 00:22:21;;;;;;;0.50;0.50;;;;;;;10.19;57.28;96994.25;29396;202;63005;-62
2021/05/26 00:22:52;;;;;;;0.50;0.50;;;;;;;10.19;57.23;96993.41;29395;251;64013;-62
2021/05/26 00:23:24;;;;;;;0.50;0.50;;;;;;;10.14;57.74;96996.97;29396;203;63005;-62
2021/05/26 00:23:59;;;;;;;0.50;0.50;;;;;;;10.17;57.27;96993.69;29396;231;63009;-62
2021/05/26 00:24:31;;;;;;;0.50;0.50;;;;;;;10.20;57.48;96995.06;29395;253;64009;-63
2021/05/26 00:25:04;;;;;;;0.60;0.60;;;;;;;10.18;58.05;96997.22;29396;245;63009;-61
2021/05/26 00:25:47;;;;;;;0.50;0.50;;;;;;;10.13;58.51;96989.13;29395;245;64009;-64
2021/05/26 00:26:18;;;;;;;0.50;0.50;;;;;;;10.14;57.80;96993.47;29396;228;63009;-63
2021/05/26 00:26:51;;;;;;;0.60;0.60;;;;;;;10.14;57.91;96986.12;29396;258;63004;-63
2021/05/26 00:27:22;;;;;;;0.50;0.50;;;;;;;10.11;58.17;96991.31;29396;285;63009;-60
2021/05/26 00:27:58;;;;;;;0.60;0.60;;;;;;;10.17;57.62;96979.34;29396;202;63005;-61
2021/05/26 00:28:31;;;;;;;0.50;0.50;;;;;;;10.16;57.47;96983.13;29396;313;63009;-62
2021/05/26 00:29:03;;;;;;;0.50;0.50;;;;;;;10.14;57.30;96986.12;29396;278;63005;-60
2021/05/26 00:29:37;;;;;;;0.50;0.50;;;;;;;10.14;57.56;96985.31;29396;251;63009;-63
2021/05/26 00:30:10;;;;;;;0.50;0.50;;;;;;;10.13;57.61;96984.53;29396;267;63005;-60
2021/05/26 00:30:51;;;;;;;0.50;0.50;;;;;;;10.17;57.63;96979.34;29395;245;64032;-61
2021/05/26 00:31:33;;;;;;;0.60;0.60;;;;;;;10.18;57.68;96989.09;29396;232;63005;-62
2021/05/26 00:32:10;;;;;;;0.50;0.50;;;;;;;10.13;58.33;96986.41;29396;211;63009;-62
2021/05/26 00:32:48;;;;;;;0.50;0.50;;;;;;;10.12;57.78;96987.50;29396;212;63004;-60
2021/05/26 00:33:20;;;;;;;0.50;0.50;;;;;;;10.09;57.93;96987.00;29396;213;63009;-61
2021/05/26 00:33:52;;;;;;;0.50;0.50;;;;;;;10.09;57.62;96984.28;29396;222;63000;-61
2021/05/26 00:34:30;;;;;;;0.50;0.50;;;;;;;10.07;58.33;96980.25;29396;203;63008;-61
2021/05/26 00:35:02;;;;;;;0.60;0.60;;;;;;;10.12;57.99;96984.81;29395;231;64009;-60
2021/05/26 00:35:34;;;;;;;0.60;0.60;;;;;;;10.11;57.87;96975.87;29396;226;63009;-61
2021/05/26 00:36:06;;;;;;;0.60;0.60;;;;;;;10.12;57.67;96990.22;29396;217;63005;-62
2021/05/26 00:36:39;;;;;;;0.60;0.60;;;;;;;10.11;58.12;96991.31;29397;300;63027;-61
2021/05/26 00:37:10;;;;;;;0.60;0.60;;;;;;;10.08;57.97;96985.38;29396;269;63010;-61
2021/05/26 00:37:42;;;;;;;0.50;0.50;;;;;;;10.04;59.43;96992.50;29396;197;63009;-62
2021/05/26 00:38:13;;;;;;;0.60;0.60;;;;;;;10.01;58.80;96984.94;29396;205;63005;-63
2021/05/26 00:38:46;;;;;;;0.50;0.50;;;;;;;10.05;58.57;96985.13;29395;329;64013;-62
2021/05/26 00:39:17;;;;;;;0.60;0.60;;;;;;;10.02;58.96;96983.84;29395;225;64009;-61
2021/05/26 00:39:48;;;;;;;0.60;0.60;;;;;;;10.02;58.59;96989.25;29396;222;63009;-63
2021/05/26 00:40:20;;;;;;;0.60;0.60;;;;;;;10.04;58.23;96983.56;29396;211;63004;-64
2021/05/26 00:40:51;;;;;;;0.60;0.60;;;;;;;10.01;58.78;96982.22;29396;245;63008;-62
2021/05/26 00:41:32;;;;;;;0.50;0.50;;;;;;;9.99;58.54;96981.69;29396;210;63004;-63
2021/05/26 00:42:04;;;;;;;0.50;0.50;;;;;;;9.97;58.60;96981.16;29418;234;63008;-60
2021/05/26 00:42:38;;;;;;;0.57;0.57;;;;;;;9.98;58.42;96982.78;29396;248;63013;-61
2021/05/26 00:43:09;;;;;;;0.50;0.50;;;;;;;9.99;58.52;96975.47;29396;238;63014;-60
2021/05/26 00:43:41;;;;;;;0.60;0.60;;;;;;;10.02;58.32;96973.00;29396;278;63005;-61
2021/05/26 00:44:16;;;;;;;0.50;0.50;;;;;;;10.04;58.41;96970.00;29395;224;64013;-61
2021/05/26 00:44:52;;;;;;;0.60;0.60;;;;;;;10.04;58.35;96976.22;29396;266;63005;-62
2021/05/26 00:45:23;;;;;;;0.50;0.50;;;;;;;10.04;58.65;96970.00;29396;293;63009;-62
2021/05/26 00:45:55;;;;;;;0.50;0.50;;;;;;;10.03;58.75;96971.91;29396;205;63004;-63
2021/05/26 00:46:26;;;;;;;0.50;0.50;;;;;;;10.03;58.28;96969.19;29396;212;63004;-63
2021/05/26 00:46:57;;;;;;;0.50;0.50;;;;;;;10.04;58.23;96968.09;29396;224;63004;-61
2021/05/26 00:47:46;;;;;;;0.50;0.50;;;;;;;10.02;58.75;96967.56;29396;251;63009;-62
2021/05/26 00:48:17;;;;;;;0.60;0.60;;;;;;;9.98;59.19;96966.53;29396;196;63004;-62
2021/05/26 00:48:48;;;;;;;0.50;0.50;;;;;;;9.96;59.21;96967.91;29396;210;63008;-60
2021/05/26 00:49:20;;;;;;;0.60;0.60;;;;;;;9.95;58.92;96967.09;29395;213;64009;-61
2021/05/26 00:49:51;;;;;;;0.50;0.50;;;;;;;9.97;58.74;96959.50;29395;220;64014;-62
2021/05/26 00:50:26;;;;;;;0.60;0.60;;;;;;;10.06;58.62;96963.16;29396;242;63001;-60
2021/05/26 00:50:57;;;;;;;0.50;0.50;;;;;;;10.12;58.38;96960.41;29396;196;63009;-62
2021/05/26 00:51:28;;;;;;;0.57;0.57;;;;;;;10.11;58.78;96954.16;29396;212;63005;-61
2021/05/26 00:51:59;;;;;;;0.50;0.50;;;;;;;10.13;58.70;96959.31;29396;223;63009;-61
2021/05/26 00:52:31;;;;;;;0.50;0.50;;;;;;;10.11;58.13;96943.31;29396;241;63005;-61
2021/05/26 00:53:08;;;;;;;0.60;0.60;;;;;;;10.09;58.20;96950.94;29396;221;63009;-61
2021/05/26 00:53:43;;;;;;;0.60;0.60;;;;;;;10.17;57.92;96949.50;29396;299;63004;-61
2021/05/26 00:54:14;;;;;;;0.50;0.50;;;;;;;10.16;58.35;96945.19;29396;221;63009;-61
2021/05/26 00:54:46;;;;;;;0.60;0.60;;;;;;;10.14;58.14;96950.06;29395;345;64009;-62
2021/05/26 00:55:19;;;;;;;0.60;0.60;;;;;;;10.12;57.99;96952.28;29396;214;63009;-60
2021/05/26 00:55:54;;;;;;;0.57;0.57;;;;;;;10.10;58.40;96952.56;29396;208;63004;-61
2021/05/26 00:56:26;;;;;;;0.50;0.50;;;;;;;10.07;58.11;96948.50;29396;198;63013;-62
2021/05/26 00:56:57;;;;;;;0.50;0.50;;;;;;;10.09;58.04;96951.75;29396;218;63005;-62
2021/05/26 00:57:29;;;;;;;0.50;0.50;;;;;;;10.10;58.19;96952.56;29396;255;63009;-61
2021/05/26 00:58:01;;;;;;;0.60;0.60;;;;;;;10.13;58.07;96959.31;29396;218;63005;-61
2021/05/26 00:58:33;;;;;;;0.60;0.60;;;;;;;10.13;58.18;96956.59;29396;267;63005;-62
2021/05/26 00:59:07;;;;;;;0.60;0.60;;;;;;;10.09;58.17;96946.31;29396;208;63005;-62
2021/05/26 00:59:38;;;;;;;0.60;0.60;;;;;;;10.09;58.39;96953.66;29395;206;64013;-62
2021/05/26 01:00:14;;;;;;;0.50;0.50;;;;;;;10.05;58.55;96956.12;29396;230;63005;-62
2021/05/26 01:00:45;;;;;;;0.50;0.50;;;;;;;10.05;58.34;96960.75;29396;216;63009;-61
2021/05/26 01:01:18;;;;;;;0.50;0.50;;;;;;;10.03;59.26;96952.91;29396;210;63004;-62
2021/05/26 01:01:49;;;;;;;0.60;0.60;;;;;;;10.02;58.72;96956.72;29395;204;64013;-62
2021/05/26 01:02:20;;;;;;;0.60;0.60;;;;;;;10.01;58.66;96968.66;29396;221;63004;-61
2021/05/26 01:02:51;;;;;;;0.50;0.50;;;;;;;10.01;58.69;96963.25;29397;224;63009;-61
2021/05/26 01:03:23;;;;;;;0.50;0.50;;;;;;;10.00;58.75;96958.91;29397;221;63004;-62
2021/05/26 01:03:56;;;;;;;0.50;0.50;;;;;;;10.01;59.16;96959.72;29397;205;63008;-61
2021/05/26 01:04:27;;;;;;;0.57;0.57;;;;;;;9.98;59.64;96958.41;29397;198;63005;-61
2021/05/26 01:04:58;;;;;;;0.60;0.60;;;;;;;9.98;59.10;96960.28;29397;293;63023;-62
2021/05/26 01:05:30;;;;;;;0.50;0.50;;;;;;;9.98;59.01;96955.69;29395;205;63998;-61
2021/05/26 01:06:02;;;;;;;0.60;0.60;;;;;;;9.99;59.32;96961.91;29397;244;63009;-61
2021/05/26 01:06:33;;;;;;;0.60;0.60;;;;;;;9.99;59.13;96961.91;29395;200;63005;-61
2021/05/26 01:07:05;;;;;;;0.60;0.60;;;;;;;9.99;58.87;96960.00;29395;216;63005;-62
2021/05/26 01:07:38;;;;;;;0.50;0.50;;;;;;;10.00;58.75;96960.81;29395;224;63005;-61
2021/05/26 01:08:10;;;;;;;0.50;0.50;;;;;;;10.00;58.82;96963.53;29396;203;63009;-62
2021/05/26 01:08:41;;;;;;;0.50;0.50;;;;;;;10.00;59.15;96967.06;29395;213;63004;-62
2021/05/26 01:09:12;;;;;;;0.60;0.60;;;;;;;9.98;59.70;96966.53;29394;197;64013;-61
2021/05/26 01:09:44;;;;;;;0.50;0.50;;;;;;;9.95;60.58;96972.53;29395;284;63004;-61
2021/05/26 01:10:21;;;;;;;0.50;0.50;;;;;;;9.92;60.61;96973.09;29396;220;63009;-61
2021/05/26 01:10:55;;;;;;;0.60;0.60;;;;;;;9.91;60.21;96971.47;29393;248;64009;-62
2021/05/26 01:11:27;;;;;;;0.52;0.52;;;;;;;9.92;59.94;96969.56;29395;233;63008;-62
2021/05/26 01:11:58;;;;;;;0.50;0.50;;;;;;;9.92;59.49;96973.09;29395;268;63005;-61
2021/05/26 01:12:30;;;;;;;0.50;0.50;;;;;;;9.93;59.55;96966.56;29395;203;63009;-62
2021/05/26 01:13:02;;;;;;;0.50;0.50;;;;;;;9.91;59.50;96966.06;29395;236;63005;-61
2021/05/26 01:13:33;;;;;;;0.50;0.50;;;;;;;9.91;59.81;96971.47;29395;284;63009;-61
2021/05/26 01:14:05;;;;;;;0.50;0.50;;;;;;;9.92;59.37;96973.09;29395;222;63005;-61
2021/05/26 01:14:37;;;;;;;0.60;0.60;;;;;;;9.96;59.53;96976.03;29395;284;63009;-61
2021/05/26 01:15:11;;;;;;;0.50;0.50;;;;;;;9.96;59.58;96971.44;29395;299;63018;-61
2021/05/26 01:15:42;;;;;;;0.60;0.60;;;;;;;9.97;60.31;96981.16;29393;222;64013;-62
2021/05/26 01:16:13;;;;;;;0.50;0.50;;;;;;;9.95;61.14;96977.94;29395;218;63004;-62
2021/05/26 01:16:45;;;;;;;0.50;0.50;;;;;;;9.96;60.21;96974.13;29393;227;64003;-61
2021/05/26 01:17:16;;;;;;;0.60;0.60;;;;;;;9.98;59.79;96971.12;29395;222;63004;-60
2021/05/26 01:17:47;;;;;;;0.50;0.50;;;;;;;10.02;60.04;96973.00;29395;226;63009;-63
2021/05/26 01:18:28;;;;;;;0.50;0.50;;;;;;;10.02;59.82;96978.41;29395;198;63004;-61
2021/05/26 01:18:59;;;;;;;0.50;0.50;;;;;;;10.01;60.07;96976.78;29417;213;63008;-62
2021/05/26 01:19:30;;;;;;;0.50;0.50;;;;;;;10.00;60.44;96982.50;29395;331;63005;-60
2021/05/26 01:20:10;;;;;;;0.60;0.60;;;;;;;10.01;61.07;96976.78;29395;225;63009;-61
2021/05/26 01:20:41;;;;;;;0.50;0.50;;;;;;;9.98;62.43;96977.38;29395;212;63005;-60
2021/05/26 01:21:16;;;;;;;0.50;0.50;;;;;;;9.96;61.91;96976.03;29395;250;63009;-63
2021/05/26 01:21:52;;;;;;;0.50;0.50;;;;;;;9.94;62.01;96976.31;29393;243;64009;-60
2021/05/26 01:22:23;;;;;;;0.60;0.60;;;;;;;9.96;60.71;96973.31;29395;251;63027;-62
2021/05/26 01:23:00;;;;;;;0.50;0.50;;;;;;;9.95;62.14;96972.53;29395;196;63005;-63
2021/05/26 01:23:32;;;;;;;0.60;0.60;;;;;;;9.94;61.19;96962.78;29393;202;64013;-61
2021/05/26 01:24:04;;;;;;;0.50;0.50;;;;;;;10.01;61.20;96955.13;29395;302;63004;-60
2021/05/26 01:24:36;;;;;;;0.60;0.60;;;;;;;10.02;61.01;96964.84;29395;222;63009;-61
2021/05/26 01:25:08;;;;;;;0.60;0.60;;;;;;;10.06;61.05;96957.75;29395;279;63004;-61
2021/05/26 01:25:39;;;;;;;0.60;0.60;;;;;;;10.05;61.09;96961.53;29395;289;63016;-63
2021/05/26 01:26:10;;;;;;;0.50;0.50;;;;;;;10.05;61.11;96956.12;29395;196;63004;-64
2021/05/26 01:26:43;;;;;;;0.50;0.50;;;;;;;10.08;60.34;96963.69;29393;202;64013;-61
2021/05/26 01:27:14;;;;;;;0.50;0.50;;;;;;;10.14;60.71;96960.94;29393;228;64009;-62
2021/05/26 01:27:46;;;;;;;0.60;0.60;;;;;;;10.20;60.72;96952.47;29395;207;63009;-63
2021/05/26 01:28:19;;;;;;;0.55;0.55;;;;;;;10.18;60.59;96956.53;29395;225;63005;-61
2021/05/26 01:28:50;;;;;;;0.60;0.60;;;;;;;10.16;61.27;96954.13;29395;253;63009;-61
2021/05/26 01:29:21;;;;;;;0.60;0.60;;;;;;;10.12;60.70;96960.41;29394;229;63005;-62
2021/05/26 01:29:59;;;;;;;0.60;0.60;;;;;;;10.06;60.73;96968.59;29395;203;63009;-63
2021/05/26 01:30:31;;;;;;;0.50;0.50;;;;;;;10.05;61.12;96966.16;29395;256;63004;-61
2021/05/26 01:31:02;;;;;;;0.50;0.50;;;;;;;10.02;60.88;96959.44;29395;260;63009;-62
2021/05/26 01:31:33;;;;;;;0.60;0.60;;;;;;;9.98;61.22;96966.53;29395;207;63004;-62
2021/05/26 01:32:05;;;;;;;0.60;0.60;;;;;;;9.91;61.98;96960.63;29395;250;63009;-61
2021/05/26 01:32:47;;;;;;;0.50;0.50;;;;;;;9.86;62.21;96959.87;29393;316;64009;-62
2021/05/26 01:33:19;;;;;;;0.60;0.60;;;;;;;9.81;62.40;96952.59;29395;251;63008;-61
2021/05/26 01:33:51;;;;;;;0.50;0.50;;;;;;;9.82;62.40;96946.09;29395;259;63004;-61
2021/05/26 01:34:22;;;;;;;0.60;0.60;;;;;;;9.80;62.29;96953.69;29395;240;63008;-62
2021/05/26 01:34:54;;;;;;;0.60;0.60;;;;;;;9.78;62.06;96950.44;29395;221;63005;-59
2021/05/26 01:35:25;;;;;;;0.50;0.50;;;;;;;9.79;62.28;96957.50;29395;202;63009;-62
2021/05/26 01:35:56;;;;;;;0.60;0.60;;;;;;;9.78;63.14;96955.88;29393;239;64009;-61
2021/05/26 01:36:29;;;;;;;0.60;0.60;;;;;;;9.77;62.53;96953.44;29395;216;63005;-61
2021/05/26 01:37:01;;;;;;;0.60;0.60;;;;;;;9.73;63.82;96962.16;29395;224;63005;-62
2021/05/26 01:37:36;;;;;;;0.60;0.60;;;;;;;9.68;64.59;96964.94;29395;225;63009;-62
2021/05/26 01:38:11;;;;;;;0.50;0.50;;;;;;;9.64;63.47;96950.34;29395;218;63004;-60
2021/05/26 01:38:43;;;;;;;0.60;0.60;;;;;;;9.61;63.32;96950.91;29393;210;64013;-62
2021/05/26 01:39:16;;;;;;;0.50;0.50;;;;;;;9.60;62.77;96948.47;29394;208;63004;-61
2021/05/26 01:39:51;;;;;;;0.50;0.50;;;;;;;9.58;63.29;96947.94;29394;219;64013;-62
2021/05/26 01:40:22;;;;;;;0.60;0.60;;;;;;;9.58;63.15;96956.88;29395;198;63004;-62
2021/05/26 01:40:59;;;;;;;0.60;0.60;;;;;;;9.61;63.80;96948.19;29395;256;63008;-63
2021/05/26 01:41:31;;;;;;;0.60;0.60;;;;;;;9.69;62.64;96952.19;29395;268;63005;-64
2021/05/26 01:42:03;;;;;;;0.70;0.70;;;;;;;9.73;62.70;96945.06;29395;223;63009;-63
2021/05/26 01:42:34;;;;;;;0.60;0.60;;;;;;;9.72;62.68;96951.59;29394;220;63005;-62
2021/05/26 01:43:05;;;;;;;0.60;0.60;;;;;;;9.72;62.43;96936.13;29395;219;63011;-60
2021/05/26 01:43:39;;;;;;;0.60;0.60;;;;;;;9.72;62.56;96940.75;29395;197;63005;-62
2021/05/26 01:44:10;;;;;;;0.50;0.50;;;;;;;9.72;62.35;96946.16;29395;228;63009;-62
2021/05/26 01:44:41;;;;;;;0.60;0.60;;;;;;;9.81;61.94;96949.88;29394;255;64009;-62
2021/05/26 01:45:15;;;;;;;0.50;0.50;;;;;;;9.93;60.95;96944.87;29394;237;63009;-66
2021/05/26 01:45:46;;;;;;;0.50;0.50;;;;;;;9.94;61.37;96938.38;29395;222;63004;-63
2021/05/26 01:46:18;;;;;;;0.60;0.60;;;;;;;9.93;61.45;96936.75;29395;229;63009;-66
2021/05/26 01:46:49;;;;;;;0.60;0.60;;;;;;;10.03;61.36;96947.50;29394;213;64009;-61
2021/05/26 01:47:20;;;;;;;0.60;0.60;;;;;;;10.00;61.43;96939.94;29395;301;63009;-62
2021/05/26 01:47:51;;;;;;;0.60;0.60;;;;;;;9.94;62.38;96935.66;29395;263;63004;-61
2021/05/26 01:48:23;;;;;;;0.60;0.60;;;;;;;9.95;62.04;96941.91;29395;208;63008;-60
2021/05/26 01:48:54;;;;;;;0.60;0.60;;;;;;;9.92;61.96;96940.56;29395;205;63005;-62
2021/05/26 01:49:25;;;;;;;0.60;0.60;;;;;;;9.88;61.84;96934.09;29395;251;63009;-64
2021/05/26 01:49:57;;;;;;;0.60;0.60;;;;;;;9.83;62.18;96931.44;29395;215;63005;-60
2021/05/26 01:50:28;;;;;;;0.60;0.60;;;;;;;9.84;62.23;96927.63;29394;222;64013;-61
2021/05/26 01:51:00;;;;;;;0.60;0.60;;;;;;;9.81;62.13;96922.78;29394;209;64009;-61
2021/05/26 01:51:31;;;;;;;0.50;0.50;;;;;;;9.73;63.64;96932.34;29395;216;63009;-61
2021/05/26 01:52:03;;;;;;;0.60;0.60;;;;;;;9.67;63.25;96930.00;29394;226;64009;-62
2021/05/26 01:52:34;;;;;;;0.60;0.60;;;;;;;9.61;63.60;96925.72;29395;273;63009;-62
2021/05/26 01:53:08;;;;;;;0.50;0.50;;;;;;;9.57;63.18;96924.66;29395;251;63004;-61
2021/05/26 01:53:39;;;;;;;0.60;0.60;;;;;;;9.54;63.62;96926.03;29395;196;63009;-60
2021/05/26 01:54:11;;;;;;;0.60;0.60;;;;;;;9.62;62.96;96919.19;29395;198;63004;-61
2021/05/26 01:54:43;;;;;;;0.60;0.60;;;;;;;9.64;62.98;96927.84;29395;313;63009;-59
2021/05/26 01:55:18;;;;;;;0.60;0.60;;;;;;;9.62;62.97;96913.78;29395;256;63004;-63
2021/05/26 01:55:49;;;;;;;0.60;0.60;;;;;;;9.60;62.90;96910.53;29395;208;63008;-61
2021/05/26 01:56:23;;;;;;;0.60;0.60;;;;;;;9.59;63.16;96922.47;29395;227;63010;-62
2021/05/26 01:56:54;;;;;;;0.52;0.52;;;;;;;9.57;63.28;96921.94;29394;227;64014;-61
2021/05/26 01:57:25;;;;;;;0.60;0.60;;;;;;;9.55;63.26;96918.72;29395;222;63005;-61
2021/05/26 01:57:56;;;;;;;0.60;0.60;;;;;;;9.52;64.03;96919.28;29395;199;63009;-62
2021/05/26 01:58:27;;;;;;;0.60;0.60;;;;;;;9.50;63.84;96921.47;29395;198;63005;-61
2021/05/26 01:58:59;;;;;;;0.50;0.50;;;;;;;9.49;63.86;96914.44;29395;273;63009;-61
2021/05/26 01:59:30;;;;;;;0.60;0.60;;;;;;;9.47;63.61;96916.63;29395;263;63005;-62
2021/05/26 02:00:02;;;;;;;0.60;0.60;;;;;;;9.47;63.80;96913.91;29395;242;63009;-62
2021/05/26 02:00:34;;;;;;;0.60;0.60;;;;;;;9.45;64.50;96908.78;29395;221;63004;-64
2021/05/26 02:01:06;;;;;;;0.55;0.55;;;;;;;9.41;64.28;96908.53;29394;202;64013;-62
2021/05/26 02:01:37;;;;;;;0.50;0.50;;;;;;;9.41;63.81;96916.66;29395;212;63004;-62
2021/05/26 02:02:08;;;;;;;0.60;0.60;;;;;;;9.40;64.75;96908.81;29394;242;64013;-62
2021/05/26 02:02:40;;;;;;;0.60;0.60;;;;;;;9.39;64.31;96910.72;29395;208;63004;-63
2021/05/26 02:03:11;;;;;;;0.50;0.50;;;;;;;9.39;64.37;96910.72;29395;313;63008;-63
2021/05/26 02:03:42;;;;;;;0.50;0.50;;;;;;;9.40;64.19;96916.94;29395;204;63004;-61
2021/05/26 02:04:16;;;;;;;0.60;0.60;;;;;;;9.38;64.14;96909.09;29395;233;63009;-63
2021/05/26 02:04:47;;;;;;;0.60;0.60;;;;;;;9.39;64.30;96912.63;29395;209;63005;-60
2021/05/26 02:05:19;;;;;;;0.60;0.60;;;;;;;9.38;64.87;96903.69;29395;257;63009;-61
2021/05/26 02:05:51;;;;;;;0.60;0.60;;;;;;;9.36;64.84;96905.87;29395;313;63005;-60
2021/05/26 02:06:24;;;;;;;0.60;0.60;;;;;;;9.37;65.30;96906.69;29395;242;63009;-61
2021/05/26 02:07:16;;;;;;;0.57;0.57;;;;;;;9.38;64.82;96902.88;29395;218;63005;-60
2021/05/26 02:07:47;;;;;;;;;;;;;;;9.36;64.95;96899.66;29996;987;6009;-60
2021/05/26 02:08:19;;;;;;;0.60;0.60;;;;;;;9.32;65.56;96904.03;29422;218;63004;-60
2021/05/26 02:08:54;;;;;;;0.50;0.50;;;;;;;9.28;65.56;96903.78;29395;221;63000;-61
2021/05/26 02:09:26;;;;;;;0.60;0.60;;;;;;;9.31;65.23;96903.22;29395;196;63018;-61
2021/05/26 02:09:57;;;;;;;0.60;0.60;;;;;;;9.31;64.91;96897.81;29395;296;63000;-63
2021/05/26 02:12:23;;;;;;;0.60;0.60;;;;;;;9.34;65.29;96902.66;29394;311;64014;-62
2021/05/26 02:12:54;;;;;;;0.60;0.60;;;;;;;9.32;65.07;96899.44;29395;205;63005;-61
2021/05/26 02:13:25;;;;;;;0.50;0.50;;;;;;;9.40;65.11;96901.50;29395;237;63009;-61
2021/05/26 02:14:01;;;;;;;0.60;0.60;;;;;;;9.45;64.77;96891.72;29395;275;63005;-62
2021/05/26 02:14:32;;;;;;;0.57;0.57;;;;;;;9.54;64.74;96895.44;29395;299;63009;-61
2021/05/26 02:15:06;;;;;;;0.50;0.50;;;;;;;9.51;64.26;96901.41;29395;207;63005;-59
2021/05/26 02:15:38;;;;;;;0.60;0.60;;;;;;;9.50;64.65;96894.38;29395;220;63009;-61
2021/05/26 02:16:09;;;;;;;0.57;0.57;;;;;;;9.46;64.48;96904.16;29395;247;63004;-61
2021/05/26 02:16:40;;;;;;;0.60;0.60;;;;;;;9.44;64.62;96903.66;29395;294;63009;-61
2021/05/26 02:17:11;;;;;;;0.60;0.60;;;;;;;9.41;64.90;96903.12;29394;260;64009;-60
2021/05/26 02:17:42;;;;;;;0.60;0.60;;;;;;;9.40;65.06;96901.50;29395;219;63009;-62
2021/05/26 02:18:13;;;;;;;0.60;0.60;;;;;;;9.41;64.89;96897.72;29395;210;63004;-61
2021/05/26 02:18:44;;;;;;;0.60;0.60;;;;;;;9.39;64.91;96899.87;29395;252;63008;-63
2021/05/26 02:19:16;;;;;;;0.50;0.50;;;;;;;9.34;65.00;96891.84;29394;264;64005;-62
2021/05/26 02:19:48;;;;;;;0.60;0.60;;;;;;;9.29;66.14;96894.59;29395;241;63009;-62
2021/05/26 02:20:19;;;;;;;0.50;0.50;;;;;;;9.24;65.35;96891.91;29395;219;63001;-61
2021/05/26 02:20:50;;;;;;;0.57;0.57;;;;;;;9.22;66.42;96891.37;29395;209;63009;-63
2021/05/26 02:21:21;;;;;;;0.60;0.60;;;;;;;9.16;66.56;96895.22;29395;221;63009;-61
2021/05/26 02:21:53;;;;;;;0.60;0.60;;;;;;;9.16;66.16;96895.22;29395;230;63009;-60
2021/05/26 02:22:25;;;;;;;0.50;0.50;;;;;;;9.18;65.85;96889.53;29394;208;64009;-61
2021/05/26 02:22:56;;;;;;;0.50;0.50;;;;;;;9.18;65.94;96886.81;29395;247;63009;-61
2021/05/26 02:23:27;;;;;;;0.50;0.50;;;;;;;9.24;65.84;96891.91;29395;298;63004;-61
2021/05/26 02:23:59;;;;;;;0.50;0.50;;;;;;;9.34;65.75;96897.25;29395;203;63009;-62
2021/05/26 02:24:30;;;;;;;0.60;0.60;;;;;;;9.33;65.69;96892.13;29393;229;64009;-62
2021/05/26 02:25:03;;;;;;;0.50;0.50;;;;;;;9.30;65.73;96890.78;29395;256;63014;-63
2021/05/26 02:25:34;;;;;;;0.50;0.50;;;;;;;9.31;65.59;96897.81;29395;202;63009;-60
2021/05/26 02:26:05;;;;;;;0.50;0.50;;;;;;;9.34;65.57;96893.72;29395;256;63008;-62
2021/05/26 02:26:37;;;;;;;0.60;0.60;;;;;;;9.39;65.31;96894.47;29395;203;63005;-61
2021/05/26 02:27:09;;;;;;;0.60;0.60;;;;;;;9.39;65.33;96894.47;29395;262;63009;-63
2021/05/26 02:27:40;;;;;;;0.60;0.60;;;;;;;9.37;65.20;96893.94;29395;244;63005;-61
2021/05/26 02:28:11;;;;;;;0.55;0.55;;;;;;;9.33;66.11;96890.22;29394;251;64013;-60
2021/05/26 02:28:43;;;;;;;0.50;0.50;;;;;;;9.34;65.81;96885.63;29395;226;63005;-61
2021/05/26 02:29:15;;;;;;;0.60;0.60;;;;;;;9.32;66.27;96893.22;29395;272;63009;-61
2021/05/26 02:29:46;;;;;;;0.60;0.60;;;;;;;9.26;65.63;96876.19;29395;196;63005;-62
2021/05/26 02:30:17;;;;;;;0.60;0.60;;;;;;;9.27;66.28;96885.13;29395;209;63009;-61
2021/05/26 02:30:48;;;;;;;0.60;0.60;;;;;;;9.24;65.91;96882.97;29395;206;63004;-61
2021/05/26 02:31:19;;;;;;;0.60;0.60;;;;;;;9.22;66.12;96885.16;29395;313;63009;-62
2021/05/26 02:31:51;;;;;;;0.60;0.60;;;;;;;9.19;66.01;96883.84;29394;206;64009;-61
2021/05/26 02:32:23;;;;;;;0.50;0.50;;;;;;;9.18;65.98;96887.62;29395;218;63009;-60
2021/05/26 02:32:54;;;;;;;0.60;0.60;;;;;;;9.17;65.95;96880.59;29395;226;63007;-62
2021/05/26 02:33:25;;;;;;;0.60;0.60;;;;;;;9.17;66.05;96882.50;29395;244;63008;-62
2021/05/26 02:33:56;;;;;;;0.60;0.60;;;;;;;9.15;66.07;96876.56;29395;196;63004;-63
2021/05/26 02:34:28;;;;;;;0.60;0.60;;;;;;;9.21;66.03;96876.25;29395;221;63009;-61
2021/05/26 02:34:59;;;;;;;0.60;0.60;;;;;;;9.21;65.92;96875.44;29395;278;63005;-62
2021/05/26 02:35:31;;;;;;;0.60;0.60;;;;;;;9.19;66.24;96878.41;29395;302;63009;-61
2021/05/26 02:36:04;;;;;;;0.52;0.52;;;;;;;9.16;66.38;96878.19;29394;212;64009;-62
2021/05/26 02:36:40;;;;;;;0.60;0.60;;;;;;;9.14;66.63;96872.25;29395;252;63009;-61
2021/05/26 02:37:14;;;;;;;0.52;0.52;;;;;;;9.11;66.65;96876.31;29395;234;63005;-58
2021/05/26 02:37:46;;;;;;;0.60;0.60;;;;;;;9.15;66.46;96874.66;29395;198;63009;-62
2021/05/26 02:38:17;;;;;;;0.60;0.60;;;;;;;9.19;66.38;96870.28;29395;216;63004;-61
2021/05/26 02:38:49;;;;;;;0.60;0.60;;;;;;;9.18;65.96;96876.81;29394;196;64009;-61